createdAt,value
2023-04-25T00:00:42.776Z,4.05
2023-04-25T00:03:11.157Z,4.83
2023-04-25T00:05:40.043Z,6.85
2023-04-25T00:08:08.302Z,3.78
2023-04-25T00:10:36.493Z,4.47
2023-04-25T00:13:04.910Z,4.57
2023-04-25T00:15:33.181Z,3.97
2023-04-25T00:18:02.893Z,4.40
2023-04-25T00:20:31.888Z,2.97
2023-04-25T00:23:00.254Z,4.60
2023-04-25T00:25:35.871Z,3.67
2023-04-25T00:28:04.296Z,5.00
2023-04-25T00:30:32.515Z,3.70
2023-04-25T00:33:02.135Z,2.75
2023-04-25T00:35:30.394Z,3.28
2023-04-25T00:37:58.674Z,3.35
2023-04-25T00:40:26.906Z,2.35
2023-04-25T00:42:55.690Z,2.58
2023-04-25T00:45:23.953Z,6.13
2023-04-25T00:47:52.417Z,5.38
2023-04-25T00:50:22.028Z,5.43
2023-04-25T00:52:50.343Z,2.85
2023-04-25T00:55:18.643Z,3.05
2023-04-25T00:57:47.851Z,5.18
2023-04-25T01:00:16.829Z,3.33
2023-04-25T01:02:45.903Z,5.20
2023-04-25T01:05:14.568Z,3.22
2023-04-25T01:07:44.292Z,3.45
2023-04-25T01:10:12.842Z,2.40
2023-04-25T01:12:41.107Z,3.22
2023-04-25T01:15:09.788Z,3.58
2023-04-25T01:17:38.483Z,9.88
2023-04-25T01:20:08.395Z,4.32
2023-04-25T01:22:38.038Z,4.10
2023-04-25T01:25:07.282Z,5.15
2023-04-25T01:27:35.538Z,2.85
2023-04-25T01:30:04.424Z,3.35
2023-04-25T01:32:39.247Z,2.88
2023-04-25T01:35:10.452Z,2.70
2023-04-25T01:37:40.539Z,3.17
2023-04-25T01:40:09.696Z,4.90
2023-04-25T01:42:39.743Z,5.55
2023-04-25T01:45:09.988Z,4.00
2023-04-25T01:47:38.824Z,2.80
2023-04-25T01:50:09.079Z,4.32
2023-04-25T01:52:37.470Z,5.78
2023-04-25T01:55:08.264Z,3.63
2023-04-25T01:57:36.654Z,4.13
2023-04-25T02:00:10.015Z,3.08
2023-04-25T02:02:38.404Z,3.67
2023-04-25T02:05:07.832Z,2.75
2023-04-25T02:07:36.104Z,3.65
2023-04-25T02:10:04.680Z,7.03
2023-04-25T02:12:34.345Z,2.97
2023-04-25T02:15:02.854Z,3.43
2023-04-25T02:17:32.675Z,3.47
2023-04-25T02:20:00.938Z,4.15
2023-04-25T02:22:31.415Z,4.90
2023-04-25T02:24:59.669Z,3.45
2023-04-25T02:27:27.947Z,4.75
2023-04-25T02:29:57.544Z,8.77
2023-04-25T02:32:25.884Z,3.85
2023-04-25T02:34:54.198Z,4.32
2023-04-25T02:37:22.513Z,3.08
2023-04-25T02:39:50.906Z,4.32
2023-04-25T02:42:19.294Z,3.58
2023-04-25T02:44:47.624Z,5.80
2023-04-25T02:47:17.317Z,4.32
2023-04-25T02:49:46.190Z,3.20
2023-04-25T02:52:14.473Z,3.35
2023-04-25T02:54:42.764Z,6.30
2023-04-25T02:57:11.213Z,4.60
2023-04-25T02:59:39.467Z,6.57
2023-04-25T03:02:07.744Z,3.05
2023-04-25T03:04:37.925Z,3.25
2023-04-25T03:07:06.271Z,5.32
2023-04-25T03:09:34.611Z,5.18
2023-04-25T03:12:02.975Z,6.80
2023-04-25T03:14:31.259Z,3.92
2023-04-25T03:16:59.499Z,3.47
2023-04-25T03:19:27.910Z,3.45
2023-04-25T03:21:57.521Z,3.78
2023-04-25T03:24:25.770Z,4.97
2023-04-25T03:26:54.026Z,4.32
2023-04-25T03:29:25.401Z,3.13
2023-04-25T03:31:53.879Z,2.05
2023-04-25T03:34:22.957Z,3.67
2023-04-25T03:36:51.334Z,2.58
2023-04-25T03:39:20.943Z,3.17
2023-04-25T03:41:49.189Z,3.47
2023-04-25T03:44:17.459Z,2.97
2023-04-25T03:46:45.698Z,4.07
2023-04-25T03:49:14.011Z,2.40
2023-04-25T03:51:42.205Z,3.60
2023-04-25T03:54:10.472Z,2.90
2023-04-25T03:56:40.079Z,4.25
2023-04-25T03:59:08.833Z,4.63
2023-04-25T04:01:37.072Z,2.33
2023-04-25T04:04:05.760Z,3.78
2023-04-25T04:06:34.993Z,3.90
2023-04-25T04:09:03.274Z,4.63
2023-04-25T04:11:32.384Z,4.93
2023-04-25T04:14:02.022Z,5.88
2023-04-25T04:16:31.445Z,3.33
2023-04-25T04:19:00.859Z,4.70
2023-04-25T04:21:29.259Z,3.90
2023-04-25T04:23:58.775Z,3.15
2023-04-25T04:26:27.203Z,3.40
2023-04-25T04:28:56.042Z,4.18
2023-04-25T04:31:25.866Z,6.18
2023-04-25T04:33:54.167Z,3.92
2023-04-25T04:36:22.997Z,2.88
2023-04-25T04:38:51.309Z,4.68
2023-04-25T04:41:21.947Z,3.47
2023-04-25T04:46:19.510Z,3.75
2023-04-25T04:48:49.176Z,3.65
2023-04-25T04:51:17.653Z,2.22
2023-04-25T04:53:45.917Z,5.25
2023-04-25T04:56:14.225Z,4.13
2023-04-25T04:58:42.520Z,3.45
2023-04-25T05:01:10.874Z,3.65
2023-04-25T05:03:39.308Z,5.05
2023-04-25T05:06:09.935Z,3.78
2023-04-25T05:08:38.614Z,2.28
2023-04-25T05:11:06.823Z,3.53
2023-04-25T05:13:35.046Z,3.33
2023-04-25T05:16:03.420Z,4.65
2023-04-25T05:18:31.909Z,1.63
2023-04-25T05:21:00.173Z,3.92
2023-04-25T05:23:32.606Z,3.65
2023-04-25T05:26:01.853Z,4.40
2023-04-25T05:28:30.112Z,2.25
2023-04-25T05:30:58.604Z,6.13
2023-04-25T05:33:26.799Z,4.47
2023-04-25T05:35:55.108Z,2.30
2023-04-25T05:38:23.374Z,2.00
2023-04-25T05:40:52.996Z,4.43
2023-04-25T05:43:21.310Z,2.75
2023-04-25T05:45:49.706Z,2.38
2023-04-25T05:48:18.000Z,1.90
2023-04-25T05:50:46.313Z,3.40
2023-04-25T05:53:14.619Z,2.53
2023-04-25T05:55:43.038Z,2.65
2023-04-25T05:58:12.675Z,1.50
2023-04-25T06:00:42.632Z,3.60
2023-04-25T06:03:11.637Z,3.17
2023-04-25T06:05:40.036Z,4.97
2023-04-25T06:08:08.272Z,3.20
2023-04-25T06:10:36.567Z,3.97
2023-04-25T06:13:04.985Z,4.57
2023-04-25T06:15:34.840Z,1.63
2023-04-25T06:18:03.250Z,2.10
2023-04-25T06:20:31.624Z,4.97
2023-04-25T06:23:00.471Z,4.80
2023-04-25T06:25:28.772Z,4.82
2023-04-25T06:27:57.051Z,5.40
2023-04-25T06:30:26.761Z,5.03
2023-04-25T06:32:56.407Z,3.27
2023-04-25T06:35:24.728Z,3.40
2023-04-25T06:37:52.965Z,5.85
2023-04-25T06:40:21.262Z,4.95
2023-04-25T06:42:49.589Z,3.25
2023-04-25T06:45:17.918Z,2.60
2023-04-25T06:47:46.199Z,3.63
2023-04-25T06:50:15.874Z,3.70
2023-04-25T06:52:44.104Z,5.87
2023-04-25T06:55:12.331Z,4.53
2023-04-25T06:57:40.584Z,4.55
2023-04-25T07:00:10.657Z,3.55
2023-04-25T07:02:39.238Z,5.80
2023-04-25T07:05:07.790Z,2.83
2023-04-25T07:07:37.406Z,1.80
2023-04-25T07:10:06.437Z,3.97
2023-04-25T07:12:34.788Z,5.43
2023-04-25T07:15:06.870Z,4.57
2023-04-25T07:17:35.858Z,3.70
2023-04-25T07:20:04.784Z,4.93
2023-04-25T07:22:33.191Z,4.80
2023-04-25T07:25:03.121Z,4.20
2023-04-25T07:27:31.463Z,4.75
2023-04-25T07:29:59.948Z,5.40
2023-04-25T07:32:28.677Z,4.10
2023-04-25T07:34:57.024Z,3.72
2023-04-25T07:37:26.421Z,3.03
2023-04-25T07:39:55.103Z,2.90
2023-04-25T07:42:24.879Z,2.35
2023-04-25T07:44:53.323Z,2.72
2023-04-25T07:47:21.598Z,4.43
2023-04-25T07:49:50.621Z,2.53
2023-04-25T07:52:18.947Z,4.97
2023-04-25T07:54:48.274Z,4.05
2023-04-25T07:57:18.110Z,2.30
2023-04-25T07:59:47.874Z,2.20
2023-04-25T08:02:16.182Z,5.82
2023-04-25T08:04:44.577Z,3.47
2023-04-25T08:07:12.922Z,2.95
2023-04-25T08:09:41.168Z,3.75
2023-04-25T08:12:09.592Z,5.25
2023-04-25T08:14:38.348Z,4.00
2023-04-25T08:17:08.237Z,4.95
2023-04-25T08:19:36.530Z,2.87
2023-04-25T08:22:04.918Z,5.88
2023-04-25T08:24:33.172Z,6.85
2023-04-25T08:27:01.661Z,3.15
2023-04-25T08:29:29.957Z,2.83
2023-04-25T08:31:58.221Z,3.42
2023-04-25T08:34:27.917Z,5.50
2023-04-25T08:36:56.176Z,4.90
2023-04-25T08:39:24.420Z,4.18
2023-04-25T08:41:53.925Z,2.42
2023-04-25T08:44:23.334Z,3.40
2023-04-25T08:46:52.793Z,3.30
2023-04-25T08:49:24.458Z,2.67
2023-04-25T08:51:54.974Z,2.70
2023-04-25T08:57:06.365Z,1.63
2023-04-25T08:59:36.626Z,3.15
2023-04-25T09:02:06.113Z,2.95
2023-04-25T09:04:34.465Z,1.70
2023-04-25T09:07:04.060Z,3.80
2023-04-25T09:09:32.452Z,3.47
2023-04-25T09:12:02.643Z,4.43
2023-04-25T09:14:31.378Z,1.45
2023-04-25T09:17:01.463Z,2.42
2023-04-25T09:22:05.448Z,3.78
2023-04-25T09:24:36.031Z,2.47
2023-04-25T09:29:37.284Z,2.75
2023-04-25T09:32:18.485Z,1.50
2023-04-25T09:34:49.310Z,1.40
2023-04-25T09:37:22.758Z,2.55
2023-04-25T09:39:52.292Z,4.65
2023-04-25T09:42:24.789Z,3.58
2023-04-25T09:44:54.399Z,4.47
2023-04-25T09:47:24.714Z,1.70
2023-04-25T09:49:53.755Z,2.50
2023-04-25T09:52:26.133Z,2.30
2023-04-25T09:54:55.081Z,1.23
2023-04-25T09:57:25.086Z,2.00
2023-04-25T09:59:54.641Z,0.98
2023-04-25T10:02:24.681Z,1.45
2023-04-25T10:04:55.976Z,2.72
2023-04-25T10:07:28.206Z,1.10
2023-04-25T10:10:00.464Z,3.45
2023-04-25T10:12:28.777Z,1.98
2023-04-25T10:14:57.304Z,1.60
2023-04-25T10:17:25.675Z,2.47
2023-04-25T10:19:54.269Z,2.88
2023-04-25T10:22:28.665Z,4.30
2023-04-25T10:24:57.475Z,1.90
2023-04-25T10:27:25.771Z,1.05
2023-04-25T10:30:05.385Z,2.63
2023-04-25T10:32:34.484Z,2.23
2023-04-25T10:35:13.186Z,1.52
2023-04-25T10:37:58.775Z,3.38
2023-04-25T10:40:27.033Z,1.17
2023-04-25T10:42:55.684Z,3.53
2023-04-25T10:45:24.353Z,3.13
2023-04-25T10:47:52.832Z,1.58
2023-04-25T10:50:21.067Z,1.58
2023-04-25T10:52:50.796Z,1.38
2023-04-25T10:55:19.073Z,3.90
2023-04-25T10:57:49.340Z,2.20
2023-04-25T11:00:19.705Z,1.45
2023-04-25T11:02:50.242Z,1.50
2023-04-25T11:05:23.839Z,2.22
2023-04-25T11:08:06.291Z,1.92
2023-04-25T11:10:37.159Z,1.25
2023-04-25T11:13:05.857Z,2.67
2023-04-25T11:15:34.199Z,10.13
2023-04-25T11:18:03.174Z,7.43
2023-04-25T11:20:31.841Z,5.95
2023-04-25T11:25:31.871Z,8.00
2023-04-25T11:28:02.201Z,5.47
2023-04-25T11:30:31.680Z,8.02
2023-04-25T11:33:00.186Z,5.90
2023-04-25T11:35:28.478Z,3.03
2023-04-25T11:37:56.806Z,4.97
2023-04-25T11:40:26.694Z,2.50
2023-04-25T11:42:55.005Z,4.78
2023-04-25T11:45:25.289Z,2.60
2023-04-25T11:47:53.930Z,6.90
2023-04-25T11:50:22.345Z,2.85
2023-04-25T11:52:51.445Z,3.65
2023-04-25T11:55:22.104Z,3.70
2023-04-25T12:02:54.661Z,3.22
2023-04-25T12:05:32.766Z,7.05
2023-04-25T12:08:14.584Z,3.60
2023-04-25T12:13:27.691Z,4.25
2023-04-25T12:15:56.912Z,5.00
2023-04-25T12:18:28.400Z,5.93
2023-04-25T12:20:57.196Z,4.05
2023-04-25T12:23:29.589Z,4.10
2023-04-25T12:25:58.722Z,6.90
2023-04-25T12:28:29.153Z,2.03
2023-04-25T12:30:59.485Z,1.92
2023-04-25T12:33:28.947Z,4.20
2023-04-25T12:35:57.505Z,1.27
2023-04-25T12:38:26.726Z,1.90
2023-04-25T12:40:55.139Z,2.65
2023-04-25T12:43:24.323Z,2.60
2023-04-25T12:45:54.936Z,1.55
2023-04-25T12:50:52.797Z,3.70
2023-04-25T12:53:22.462Z,1.20
2023-04-25T12:55:51.032Z,1.20
2023-04-25T12:58:20.973Z,1.60
2023-04-25T13:00:49.477Z,1.10
2023-04-25T13:03:19.851Z,4.43
2023-04-25T13:05:48.307Z,0.70
2023-04-25T13:08:16.596Z,1.45
2023-04-25T13:10:45.181Z,1.05
2023-04-25T13:13:13.561Z,1.52
2023-04-25T13:15:41.815Z,2.03
2023-04-25T13:18:10.234Z,2.33
2023-04-25T13:20:39.899Z,1.35
2023-04-25T13:23:08.214Z,3.83
2023-04-25T13:25:36.597Z,0.55
2023-04-25T13:28:05.713Z,0.85
2023-04-25T13:30:33.961Z,0.40
2023-04-25T13:33:04.330Z,1.02
2023-04-25T13:38:02.820Z,0.80
2023-04-25T13:40:31.682Z,1.02
2023-04-25T13:43:00.287Z,1.10
2023-04-25T13:45:29.002Z,1.17
2023-04-25T13:47:57.896Z,0.82
2023-04-25T13:50:26.828Z,1.63
2023-04-25T13:52:55.125Z,0.38
2023-04-25T13:55:24.781Z,0.57
2023-04-25T13:57:53.306Z,1.00
2023-04-25T14:00:22.148Z,0.60
2023-04-25T14:02:50.905Z,0.65
2023-04-25T14:05:19.342Z,0.40
2023-04-25T14:07:47.593Z,0.40
2023-04-25T14:10:16.688Z,0.52
2023-04-25T14:12:46.586Z,0.60
2023-04-25T14:15:14.973Z,1.20
2023-04-25T14:17:43.241Z,0.75
2023-04-25T14:20:12.546Z,0.30
2023-04-25T14:22:44.068Z,0.50
2023-04-25T14:25:12.888Z,0.60
2023-04-25T14:27:41.382Z,0.40
2023-04-25T14:30:12.857Z,0.65
2023-04-25T14:32:41.424Z,0.73
2023-04-25T14:35:11.145Z,1.17
2023-04-25T14:37:40.336Z,2.27
2023-04-25T14:40:11.669Z,0.93
2023-04-25T14:42:40.207Z,0.80
2023-04-25T14:45:09.955Z,1.33
2023-04-25T14:47:39.932Z,1.92
2023-04-25T14:50:09.536Z,3.50
2023-04-25T14:52:38.177Z,0.98
2023-04-25T14:55:06.779Z,4.50
2023-04-25T14:57:35.478Z,1.23
2023-04-25T15:00:09.453Z,2.63
2023-04-25T15:02:39.526Z,0.80
2023-04-25T15:05:09.583Z,1.67
2023-04-25T15:07:38.071Z,1.67
2023-04-25T15:10:11.968Z,0.77
2023-04-25T15:12:40.306Z,1.08
2023-04-25T15:15:14.272Z,1.40
2023-04-25T15:17:47.462Z,0.98
2023-04-25T15:20:16.097Z,1.10
2023-04-25T15:22:45.859Z,1.15
2023-04-25T15:25:14.084Z,0.70
2023-04-25T15:27:44.818Z,2.83
2023-04-25T15:30:16.138Z,1.45
2023-04-25T15:32:45.006Z,0.68
2023-04-25T15:35:15.665Z,0.82
2023-04-25T15:40:13.986Z,1.20
2023-04-25T15:42:44.367Z,1.63
2023-04-25T15:45:13.475Z,1.50
2023-04-25T15:47:42.103Z,0.98
2023-04-25T15:50:11.435Z,2.47
2023-04-25T15:52:41.088Z,1.83
2023-04-25T15:55:11.611Z,1.50
2023-04-25T15:57:42.082Z,1.45
2023-04-25T16:00:13.079Z,2.22
2023-04-25T16:02:42.602Z,2.33
2023-04-25T16:05:12.891Z,2.88
2023-04-25T16:07:44.638Z,1.50
2023-04-25T16:10:13.467Z,2.40
2023-04-25T16:12:41.761Z,2.22
2023-04-25T16:15:11.501Z,2.42
2023-04-25T16:17:40.162Z,1.90
2023-04-25T16:20:10.682Z,2.60
2023-04-25T16:22:40.036Z,1.58
2023-04-25T16:25:10.561Z,2.10
2023-04-25T16:27:39.641Z,2.08
2023-04-25T16:30:09.937Z,2.20
2023-04-25T16:32:39.807Z,1.60
2023-04-25T16:35:09.533Z,2.25
2023-04-25T16:37:37.858Z,1.98
2023-04-25T16:40:09.016Z,4.05
2023-04-25T16:42:38.654Z,1.90
2023-04-25T16:45:07.646Z,11.50
2023-04-25T16:47:36.327Z,3.28
2023-04-25T16:50:05.185Z,4.45
2023-04-25T16:52:33.454Z,0.95
2023-04-25T16:55:01.815Z,3.13
2023-04-25T16:57:30.233Z,3.15
2023-04-25T16:59:59.917Z,3.97
2023-04-25T17:02:28.624Z,2.47
2023-04-25T17:04:56.982Z,3.60
2023-04-25T17:07:25.328Z,2.47
2023-04-25T17:09:53.801Z,3.35
2023-04-25T17:12:22.347Z,3.83
2023-04-25T17:14:51.140Z,3.97
2023-04-25T17:17:21.424Z,3.28
2023-04-25T17:19:49.734Z,3.40
2023-04-25T17:22:18.142Z,2.95
2023-04-25T17:24:46.497Z,3.05
2023-04-25T17:27:14.845Z,3.35
2023-04-25T17:29:43.053Z,4.68
2023-04-25T17:32:11.481Z,1.98
2023-04-25T17:34:41.130Z,5.18
2023-04-25T17:37:15.113Z,5.17
2023-04-25T17:39:43.777Z,5.50
2023-04-25T17:42:12.794Z,4.03
2023-04-25T17:44:41.773Z,2.92
2023-04-25T17:47:11.521Z,4.80
2023-04-25T17:49:41.457Z,2.23
2023-04-25T17:52:10.091Z,3.65
2023-04-25T17:54:38.462Z,3.58
2023-04-25T17:57:07.100Z,3.28
2023-04-25T17:59:35.655Z,3.70
2023-04-25T18:02:04.027Z,2.53
2023-04-25T18:04:32.880Z,3.20
2023-04-25T18:07:02.537Z,5.63
2023-04-25T18:09:32.393Z,4.97
2023-04-25T18:12:01.334Z,4.10
2023-04-25T18:14:29.858Z,6.07
2023-04-25T18:16:58.077Z,6.25
2023-04-25T18:19:26.286Z,4.70
2023-04-25T18:21:56.156Z,3.63
2023-04-25T18:24:27.138Z,4.40
2023-04-25T18:26:57.327Z,4.75
2023-04-25T18:29:33.066Z,4.85
2023-04-25T18:32:05.259Z,2.63
2023-04-25T18:34:34.085Z,11.93
2023-04-25T18:37:02.405Z,4.15
2023-04-25T18:39:32.221Z,3.40
2023-04-25T18:42:04.637Z,3.55
2023-04-25T18:44:39.537Z,2.20
2023-04-25T18:47:07.977Z,5.15
2023-04-25T18:49:37.494Z,2.17
2023-04-25T18:52:08.444Z,2.08
2023-04-25T18:54:38.179Z,2.17
2023-04-25T18:57:07.136Z,2.43
2023-04-25T18:59:35.619Z,2.90
2023-04-25T19:02:05.602Z,5.18
2023-04-25T19:04:34.289Z,3.35
2023-04-25T19:07:03.574Z,6.50
2023-04-25T19:09:32.077Z,8.63
2023-04-25T19:12:02.492Z,6.07
2023-04-25T19:14:32.404Z,5.30
2023-04-25T19:17:00.852Z,4.32
2023-04-25T19:19:29.275Z,5.97
2023-04-25T19:21:59.108Z,4.78
2023-04-25T19:24:27.506Z,4.95
2023-04-25T19:26:55.785Z,5.40
2023-04-25T19:29:25.481Z,8.57
2023-04-25T19:31:54.551Z,5.57
2023-04-25T19:34:24.619Z,6.78
2023-04-25T19:36:54.518Z,4.85
2023-04-25T19:39:23.654Z,4.50
2023-04-25T19:41:52.258Z,7.13
2023-04-25T19:44:20.502Z,6.60
2023-04-25T19:46:50.753Z,5.50
2023-04-25T19:49:19.366Z,6.15
2023-04-25T19:51:47.631Z,4.60
2023-04-25T19:54:15.952Z,6.97
2023-04-25T19:56:44.216Z,8.13
2023-04-25T19:59:12.513Z,5.60
2023-04-25T20:01:40.948Z,5.40
2023-04-25T20:04:10.738Z,5.35
2023-04-25T20:06:39.076Z,3.97
2023-04-25T20:09:09.479Z,6.40
2023-04-25T20:11:37.817Z,6.72
2023-04-25T20:14:06.382Z,6.50
2023-04-25T20:16:34.657Z,5.28
2023-04-25T20:19:02.962Z,5.70
2023-04-25T20:21:34.144Z,4.32
2023-04-25T20:24:03.051Z,6.47
2023-04-25T20:26:33.837Z,4.35
2023-04-25T20:29:02.266Z,5.82
2023-04-25T20:31:32.669Z,4.53
2023-04-25T20:34:01.302Z,6.53
2023-04-25T20:36:29.737Z,11.95
2023-04-25T20:38:59.472Z,9.85
2023-04-25T20:41:27.711Z,7.50
2023-04-25T20:43:55.989Z,8.68
2023-04-25T20:46:24.909Z,11.05
2023-04-25T20:48:53.688Z,9.18
2023-04-25T20:51:22.952Z,10.38
2023-04-25T20:53:51.477Z,6.20
2023-04-25T20:56:21.145Z,7.88
2023-04-25T20:58:49.813Z,8.57
2023-04-25T21:01:18.727Z,8.93
2023-04-25T21:03:48.386Z,8.50
2023-04-25T21:06:16.974Z,12.23
2023-04-25T21:08:45.463Z,9.27
2023-04-25T21:11:13.883Z,17.63
2023-04-25T21:13:43.510Z,6.82
2023-04-25T21:16:11.773Z,13.52
2023-04-25T21:18:39.977Z,7.15
2023-04-25T21:21:08.500Z,8.15
2023-04-25T21:23:36.701Z,9.48
2023-04-25T21:26:04.911Z,8.25
2023-04-25T21:28:33.156Z,7.78
2023-04-25T21:31:02.780Z,9.27
2023-04-25T21:33:31.400Z,10.83
2023-04-25T21:36:00.039Z,13.95
2023-04-25T21:38:28.328Z,8.52
2023-04-25T21:40:56.665Z,10.98
2023-04-25T21:43:24.872Z,10.13
2023-04-25T21:46:19.089Z,10.13
2023-04-25T21:48:43.214Z,12.00
2023-04-25T21:51:12.051Z,8.27
2023-04-25T21:53:40.438Z,12.18
2023-04-25T21:56:09.014Z,6.47
2023-04-25T21:58:37.580Z,8.48
2023-04-25T22:01:05.849Z,10.07
2023-04-25T22:03:34.296Z,13.00
2023-04-25T22:06:04.917Z,5.70
2023-04-25T22:08:33.250Z,8.18
2023-04-25T22:11:02.857Z,9.48
2023-04-25T22:13:33.375Z,14.07
2023-04-25T22:16:02.057Z,9.57
2023-04-25T22:18:30.407Z,15.90
2023-04-25T22:20:58.754Z,12.45
2023-04-25T22:23:28.925Z,17.27
2023-04-25T22:25:57.203Z,15.82
2023-04-25T22:28:25.482Z,11.48
2023-04-25T22:30:53.683Z,8.80
2023-04-25T22:33:21.983Z,13.00
2023-04-25T22:35:50.208Z,6.60
2023-04-25T22:38:18.570Z,6.28
2023-04-25T22:40:48.362Z,4.50
2023-04-25T22:43:16.766Z,8.50
2023-04-25T22:45:45.046Z,10.30
2023-04-25T22:48:13.647Z,9.25
2023-04-25T22:50:41.917Z,9.27
2023-04-25T22:53:11.151Z,10.70
2023-04-25T22:55:39.894Z,6.47
2023-04-25T22:58:10.070Z,10.02
2023-04-25T23:00:38.324Z,8.40
2023-04-25T23:03:07.869Z,12.55
2023-04-25T23:05:36.442Z,7.13
2023-04-25T23:08:05.494Z,9.02
2023-04-25T23:10:33.817Z,9.75
2023-04-25T23:13:02.174Z,6.70
2023-04-25T23:15:31.956Z,6.60
2023-04-25T23:18:00.271Z,14.68
2023-04-25T23:20:28.571Z,6.85
2023-04-25T23:22:56.851Z,7.68
2023-04-25T23:25:25.971Z,13.50
2023-04-25T23:27:54.311Z,6.30
2023-04-25T23:30:23.048Z,16.52
2023-04-25T23:32:53.582Z,8.18
2023-04-25T23:37:50.127Z,16.55
2023-04-25T23:40:18.656Z,17.63
2023-04-25T23:42:47.498Z,18.33
2023-04-25T23:45:16.692Z,19.05
2023-04-25T23:47:45.041Z,14.48
2023-04-25T23:50:14.709Z,30.23
2023-04-25T23:52:43.034Z,24.60
2023-04-25T23:55:11.412Z,21.67
2023-04-25T23:57:39.688Z,46.20
